createdAt,value
2022-11-14T00:01:29.116Z,9.97
2022-11-14T00:03:58.128Z,6.90
2022-11-14T00:06:25.884Z,7.63
2022-11-14T00:08:53.410Z,7.63
2022-11-14T00:11:21.125Z,7.27
2022-11-14T00:13:48.699Z,7.17
2022-11-14T00:16:16.441Z,8.30
2022-11-14T00:18:44.028Z,8.13
2022-11-14T00:21:12.976Z,8.93
2022-11-14T00:23:40.594Z,9.43
2022-11-14T00:26:08.415Z,9.73
2022-11-14T00:28:36.034Z,8.20
2022-11-14T00:31:03.740Z,9.60
2022-11-14T00:33:31.330Z,7.83
2022-11-14T00:35:58.827Z,8.13
2022-11-14T00:38:28.085Z,10.50
2022-11-14T00:40:55.967Z,7.70
2022-11-14T00:43:23.562Z,7.87
2022-11-14T00:45:51.191Z,9.87
2022-11-14T00:48:18.749Z,7.77
2022-11-14T00:50:46.361Z,8.43
2022-11-14T00:53:14.289Z,10.47
2022-11-14T00:55:43.862Z,9.33
2022-11-14T00:58:11.493Z,7.83
2022-11-14T01:00:39.373Z,8.63
2022-11-14T01:03:07.018Z,12.17
2022-11-14T01:05:34.642Z,11.63
2022-11-14T01:08:02.245Z,9.00
2022-11-14T01:10:29.767Z,10.23
2022-11-14T01:12:58.675Z,9.60
2022-11-14T01:15:26.328Z,9.83
2022-11-14T01:17:53.912Z,9.90
2022-11-14T01:20:21.537Z,12.83
2022-11-14T01:22:49.077Z,12.93
2022-11-14T01:25:16.702Z,14.03
2022-11-14T01:27:44.280Z,15.60
2022-11-14T01:30:14.658Z,14.93
2022-11-14T01:32:42.231Z,13.20
2022-11-14T01:35:09.913Z,24.37
2022-11-14T01:37:37.528Z,27.73
2022-11-14T01:40:05.851Z,30.50
2022-11-14T01:42:33.390Z,30.70
2022-11-14T01:45:01.081Z,31.67
2022-11-14T01:47:32.037Z,40.70
2022-11-14T01:50:01.776Z,138.23
2022-11-14T01:52:31.603Z,153.50
2022-11-14T01:55:01.292Z,113.00
2022-11-14T01:57:32.407Z,37.80
2022-11-14T02:00:04.754Z,103.13
2022-11-14T02:02:33.777Z,109.47
2022-11-14T02:05:05.851Z,75.87
2022-11-14T02:07:35.693Z,36.27
2022-11-14T02:10:08.445Z,40.93
2022-11-14T02:12:36.238Z,86.10
2022-11-14T02:15:04.494Z,67.07
2022-11-14T02:17:33.553Z,35.60
2022-11-14T02:20:20.595Z,34.47
2022-11-14T02:22:48.260Z,66.53
2022-11-14T02:25:18.019Z,39.47
2022-11-14T02:27:45.616Z,36.73
2022-11-14T02:30:16.535Z,43.07
2022-11-14T02:33:10.128Z,40.63
2022-11-14T02:35:32.997Z,41.67
2022-11-14T02:38:00.565Z,36.87
2022-11-14T02:40:28.125Z,44.17
2022-11-14T02:42:55.670Z,88.97
2022-11-14T02:45:23.536Z,44.60
2022-11-14T02:47:51.153Z,69.43
2022-11-14T02:50:19.115Z,98.30
2022-11-14T02:52:48.025Z,98.17
2022-11-14T02:55:15.774Z,124.13
2022-11-14T02:57:43.392Z,80.57
2022-11-14T03:00:14.843Z,288.57
2022-11-14T03:02:42.879Z,216.37
2022-11-14T03:05:10.572Z,92.77
2022-11-14T03:07:38.170Z,411.40
2022-11-14T03:10:09.427Z,139.03
2022-11-14T03:12:37.008Z,253.93
2022-11-14T03:15:05.032Z,360.07
2022-11-14T03:17:33.162Z,360.40
2022-11-14T03:20:01.069Z,553.33
2022-11-14T03:22:28.809Z,523.77
2022-11-14T03:24:56.395Z,440.37
2022-11-14T03:27:25.281Z,498.30
2022-11-14T03:29:52.822Z,528.53
2022-11-14T03:32:20.446Z,541.33
2022-11-14T03:34:48.004Z,246.27
2022-11-14T03:37:15.654Z,520.33
2022-11-14T03:39:43.213Z,102.03
2022-11-14T03:42:10.770Z,201.37
2022-11-14T03:44:39.848Z,200.67
2022-11-14T03:47:07.541Z,144.03
2022-11-14T03:49:35.093Z,54.37
2022-11-14T03:52:02.657Z,281.40
2022-11-14T03:54:30.220Z,224.67
2022-11-14T03:56:57.846Z,201.50
2022-11-14T03:59:25.366Z,215.87
2022-11-14T04:01:54.277Z,194.43
2022-11-14T04:04:21.849Z,161.90
2022-11-14T04:06:49.530Z,396.20
2022-11-14T04:09:17.110Z,147.17
2022-11-14T04:11:44.765Z,171.13
2022-11-14T04:14:12.428Z,365.97
2022-11-14T04:16:40.061Z,349.27
2022-11-14T04:19:09.019Z,143.13
2022-11-14T04:21:36.572Z,363.30
2022-11-14T04:24:08.481Z,149.73
2022-11-14T04:26:38.760Z,283.60
2022-11-14T04:29:06.512Z,80.13
2022-11-14T04:31:34.119Z,108.97
2022-11-14T04:34:01.925Z,136.83
2022-11-14T04:36:30.899Z,138.27
2022-11-14T04:38:58.468Z,49.37
2022-11-14T04:41:26.039Z,69.73
2022-11-14T04:43:53.616Z,150.90
2022-11-14T04:46:21.162Z,162.93
2022-11-14T04:48:48.726Z,38.70
2022-11-14T04:51:16.455Z,105.20
2022-11-14T04:53:45.345Z,74.40
2022-11-14T04:56:12.854Z,171.10
2022-11-14T04:58:40.429Z,240.63
2022-11-14T05:01:09.216Z,210.30
2022-11-14T05:03:36.880Z,308.07
2022-11-14T05:06:05.021Z,91.97
2022-11-14T05:08:32.884Z,234.77
2022-11-14T05:11:02.028Z,204.77
2022-11-14T05:13:29.623Z,274.83
2022-11-14T05:15:59.851Z,251.07
2022-11-14T05:18:28.537Z,289.80
2022-11-14T05:20:59.330Z,148.13
2022-11-14T05:23:27.410Z,489.00
2022-11-14T05:26:04.038Z,382.20
2022-11-14T05:28:32.435Z,445.17
2022-11-14T05:31:04.050Z,626.00
2022-11-14T05:33:32.109Z,431.40
2022-11-14T05:36:03.576Z,257.77
2022-11-14T05:38:31.494Z,486.33
2022-11-14T05:40:59.358Z,371.97
2022-11-14T05:43:30.209Z,354.00
2022-11-14T05:46:00.681Z,310.27
2022-11-14T05:48:28.860Z,128.73
2022-11-14T05:50:56.689Z,48.53
2022-11-14T05:53:24.596Z,411.57
2022-11-14T05:55:52.196Z,233.00
2022-11-14T05:58:20.109Z,244.73
2022-11-14T06:00:53.868Z,152.00
2022-11-14T06:03:21.991Z,167.20
2022-11-14T06:05:49.559Z,120.40
2022-11-14T06:08:17.113Z,108.90
2022-11-14T06:10:44.655Z,34.33
2022-11-14T06:13:12.232Z,103.00
2022-11-14T06:15:39.815Z,65.93
2022-11-14T06:18:08.755Z,66.47
2022-11-14T06:20:37.160Z,87.33
2022-11-14T06:23:04.707Z,44.70
2022-11-14T06:25:32.293Z,52.43
2022-11-14T06:27:59.880Z,89.13
2022-11-14T06:30:27.471Z,78.13
2022-11-14T06:32:58.108Z,81.10
2022-11-14T06:35:27.132Z,75.73
2022-11-14T06:37:54.727Z,90.43
2022-11-14T06:40:22.329Z,129.53
2022-11-14T06:42:49.890Z,64.17
2022-11-14T06:45:17.583Z,83.63
2022-11-14T06:47:45.290Z,126.23
2022-11-14T06:50:12.910Z,267.77
2022-11-14T06:52:41.852Z,164.50
2022-11-14T06:55:09.584Z,178.73
2022-11-14T06:57:37.164Z,321.03
2022-11-14T07:00:05.763Z,184.40
2022-11-14T07:02:33.395Z,251.43
2022-11-14T07:05:01.029Z,222.80
2022-11-14T07:07:28.918Z,124.63
2022-11-14T07:09:58.797Z,469.83
2022-11-14T07:12:26.430Z,344.93
2022-11-14T07:14:55.514Z,361.93
2022-11-14T07:17:27.127Z,347.90
2022-11-14T07:19:57.515Z,161.57
2022-11-14T07:22:25.102Z,168.27
2022-11-14T07:24:52.794Z,74.47
2022-11-14T07:27:21.676Z,105.43
2022-11-14T07:29:51.790Z,37.13
2022-11-14T07:32:20.336Z,39.87
2022-11-14T07:34:48.288Z,38.97
2022-11-14T07:37:15.907Z,41.57
2022-11-14T07:39:43.538Z,37.07
2022-11-14T07:42:11.126Z,105.87
2022-11-14T07:44:40.093Z,51.67
2022-11-14T07:47:07.703Z,190.67
2022-11-14T07:49:35.343Z,160.53
2022-11-14T07:52:02.986Z,268.07
2022-11-14T07:54:30.487Z,59.83
2022-11-14T07:56:58.123Z,51.57
2022-11-14T07:59:25.695Z,48.37
2022-11-14T08:01:54.619Z,67.87
2022-11-14T08:04:22.106Z,41.93
2022-11-14T08:06:49.738Z,47.60
2022-11-14T08:09:17.431Z,43.67
2022-11-14T08:11:50.843Z,47.93
2022-11-14T08:14:18.407Z,50.67
2022-11-14T08:16:46.079Z,46.07
2022-11-14T08:19:16.855Z,46.93
2022-11-14T08:21:44.505Z,47.83
2022-11-14T08:24:12.115Z,43.40
2022-11-14T08:26:39.823Z,50.23
2022-11-14T08:29:07.405Z,47.53
2022-11-14T08:31:34.969Z,42.40
2022-11-14T08:34:02.525Z,51.40
2022-11-14T08:36:31.422Z,45.20
2022-11-14T08:39:02.100Z,36.70
2022-11-14T08:41:29.935Z,41.57
2022-11-14T08:43:57.491Z,43.33
2022-11-14T08:46:25.172Z,37.53
2022-11-14T08:48:52.728Z,37.70
2022-11-14T08:51:20.327Z,36.40
2022-11-14T08:53:49.248Z,40.03
2022-11-14T08:56:16.818Z,41.13
2022-11-14T08:58:44.393Z,37.00
2022-11-14T09:01:12.597Z,34.80
2022-11-14T09:03:40.295Z,36.53
2022-11-14T09:06:08.114Z,33.37
2022-11-14T09:08:35.732Z,29.90
2022-11-14T09:11:08.391Z,35.90
2022-11-14T09:13:37.579Z,31.87
2022-11-14T09:16:05.558Z,29.83
2022-11-14T09:18:33.371Z,31.63
2022-11-14T09:21:02.152Z,29.90
2022-11-14T09:23:30.104Z,29.43
2022-11-14T09:25:58.207Z,29.20
2022-11-14T09:28:27.099Z,28.00
2022-11-14T09:30:54.738Z,27.33
2022-11-14T09:33:22.285Z,28.70
2022-11-14T09:35:49.892Z,30.07
2022-11-14T09:38:17.425Z,28.37
2022-11-14T09:41:09.759Z,29.23
2022-11-14T09:43:59.407Z,29.70
2022-11-14T09:46:28.517Z,29.47
2022-11-14T09:48:56.179Z,27.70
2022-11-14T09:51:25.471Z,28.07
2022-11-14T09:53:55.226Z,30.80
2022-11-14T09:56:25.731Z,30.53
2022-11-14T09:58:56.402Z,29.77
2022-11-14T10:01:32.088Z,27.57
2022-11-14T10:04:09.206Z,30.53
2022-11-14T10:06:43.731Z,25.70
2022-11-14T10:09:50.877Z,24.67
2022-11-14T10:12:23.236Z,25.23
2022-11-14T10:15:14.407Z,24.93
2022-11-14T10:17:50.863Z,24.03
2022-11-14T10:20:21.664Z,25.03
2022-11-14T10:23:02.261Z,24.77
2022-11-14T10:25:32.133Z,22.40
2022-11-14T10:28:23.688Z,22.93
2022-11-14T10:31:02.155Z,22.23
2022-11-14T10:33:37.575Z,24.47
2022-11-14T10:36:11.688Z,27.70
2022-11-14T10:38:44.865Z,23.13
2022-11-14T10:41:28.511Z,24.00
2022-11-14T10:44:00.360Z,24.07
2022-11-14T10:46:31.806Z,21.67
2022-11-14T10:49:00.688Z,21.17
2022-11-14T10:51:32.856Z,22.63
2022-11-14T10:54:05.548Z,23.00
2022-11-14T10:56:33.359Z,20.87
2022-11-14T10:59:00.897Z,21.40
2022-11-14T11:01:36.274Z,20.53
2022-11-14T11:04:16.398Z,22.00
2022-11-14T11:06:44.488Z,21.37
2022-11-14T11:09:32.879Z,23.73
2022-11-14T11:12:02.719Z,24.23
2022-11-14T11:14:30.892Z,20.50
2022-11-14T11:17:35.064Z,20.97
2022-11-14T11:20:25.579Z,18.83
2022-11-14T11:23:03.428Z,18.97
2022-11-14T11:25:32.956Z,18.33
2022-11-14T11:28:08.933Z,18.53
2022-11-14T11:30:36.534Z,19.23
2022-11-14T11:33:24.164Z,19.43
2022-11-14T11:35:52.337Z,16.97
2022-11-14T11:38:20.328Z,18.80
2022-11-14T11:40:49.966Z,18.57
2022-11-14T11:43:39.542Z,17.10
2022-11-14T11:46:15.953Z,22.60
2022-11-14T11:48:47.162Z,19.63
2022-11-14T11:51:17.404Z,21.90
2022-11-14T11:53:48.394Z,18.97
2022-11-14T11:56:19.395Z,19.37
2022-11-14T11:58:48.999Z,18.70
2022-11-14T12:01:17.453Z,17.10
2022-11-14T12:03:49.808Z,17.13
2022-11-14T12:06:24.515Z,17.60
2022-11-14T12:09:07.710Z,16.20
2022-11-14T12:11:38.236Z,16.27
2022-11-14T12:14:27.105Z,15.20
2022-11-14T12:17:05.141Z,14.80
2022-11-14T12:20:06.896Z,16.83
2022-11-14T12:22:44.807Z,19.20
2022-11-14T12:25:27.773Z,16.63
2022-11-14T12:28:10.059Z,15.77
2022-11-14T12:30:40.624Z,16.50
2022-11-14T12:33:11.322Z,16.03
2022-11-14T12:35:49.577Z,16.03
2022-11-14T12:38:19.505Z,17.30
2022-11-14T12:40:51.943Z,14.07
2022-11-14T12:43:37.356Z,16.10
2022-11-14T12:46:08.410Z,17.83
2022-11-14T12:48:38.081Z,16.93
2022-11-14T12:51:45.643Z,14.93
2022-11-14T12:54:43.661Z,16.73
2022-11-14T12:57:35.858Z,16.43
2022-11-14T13:00:05.553Z,17.20
2022-11-14T13:02:49.913Z,16.13
2022-11-14T13:05:24.952Z,17.77
2022-11-14T13:08:04.949Z,15.40
2022-11-14T13:10:36.298Z,16.47
2022-11-14T13:13:24.813Z,18.13
2022-11-14T13:16:19.454Z,16.77
2022-11-14T13:19:12.393Z,14.67
2022-11-14T13:21:49.099Z,16.30
2022-11-14T13:24:19.101Z,14.13
2022-11-14T13:26:54.441Z,14.27
2022-11-14T13:29:57.650Z,16.00
2022-11-14T13:33:02.001Z,12.30
2022-11-14T13:36:04.889Z,13.10
2022-11-14T13:38:58.681Z,13.37
2022-11-14T13:41:47.841Z,14.43
2022-11-14T13:44:51.403Z,11.70
2022-11-14T13:47:30.220Z,12.83
2022-11-14T13:50:01.448Z,11.27
2022-11-14T13:52:30.439Z,11.97
2022-11-14T13:54:58.184Z,10.93
2022-11-14T13:57:32.530Z,10.97
2022-11-14T14:00:07.102Z,12.77
2022-11-14T14:02:52.927Z,11.37
2022-11-14T14:05:29.151Z,10.93
2022-11-14T14:08:06.330Z,10.27
2022-11-14T14:10:41.502Z,10.63
2022-11-14T14:13:21.465Z,10.33
2022-11-14T14:15:58.209Z,9.70
2022-11-14T14:18:31.269Z,8.90
2022-11-14T14:21:05.662Z,11.47
2022-11-14T14:23:39.331Z,11.17
2022-11-14T14:26:14.797Z,12.17
2022-11-14T14:28:53.269Z,12.50
2022-11-14T14:31:23.208Z,11.77
2022-11-14T14:33:52.161Z,14.27
2022-11-14T14:36:22.132Z,11.27
2022-11-14T14:38:50.153Z,10.00
2022-11-14T14:41:20.018Z,12.93
2022-11-14T14:43:56.276Z,10.67
2022-11-14T14:46:29.592Z,13.10
2022-11-14T14:48:57.884Z,10.77
2022-11-14T14:51:33.517Z,11.90
2022-11-14T14:54:01.097Z,10.37
2022-11-14T14:56:29.757Z,9.97
2022-11-14T14:58:58.683Z,11.10
2022-11-14T15:01:32.429Z,10.47
2022-11-14T15:04:03.858Z,11.03
2022-11-14T15:06:34.712Z,11.90
2022-11-14T15:09:04.716Z,10.40
2022-11-14T15:11:32.981Z,12.80
2022-11-14T15:14:02.738Z,11.37
2022-11-14T15:16:30.887Z,11.43
2022-11-14T15:18:59.363Z,16.37
2022-11-14T15:21:28.544Z,12.57
2022-11-14T15:24:01.192Z,10.00
2022-11-14T15:26:30.397Z,11.80
2022-11-14T15:29:17.692Z,11.63
2022-11-14T15:31:48.827Z,12.17
2022-11-14T15:34:26.916Z,12.60
2022-11-14T15:37:22.050Z,12.30
2022-11-14T15:39:49.713Z,11.87
2022-11-14T15:42:20.980Z,10.80
2022-11-14T15:44:50.450Z,11.70
2022-11-14T15:47:25.094Z,11.27
2022-11-14T15:50:00.303Z,13.90
2022-11-14T15:52:32.041Z,11.27
2022-11-14T15:54:59.629Z,10.30
2022-11-14T15:57:27.316Z,13.20
2022-11-14T15:59:56.198Z,11.40
2022-11-14T16:02:26.239Z,13.00
2022-11-14T16:04:54.444Z,11.43
2022-11-14T16:07:25.045Z,10.93
2022-11-14T16:09:52.654Z,11.20
2022-11-14T16:12:20.342Z,10.43
2022-11-14T16:14:48.101Z,12.47
2022-11-14T16:17:18.248Z,10.60
2022-11-14T16:19:45.845Z,11.00
2022-11-14T16:22:15.196Z,10.73
2022-11-14T16:24:42.769Z,11.40
2022-11-14T16:27:30.007Z,11.53
2022-11-14T16:47:26.894Z,11.33
2022-11-14T16:50:55.662Z,14.13
2022-11-14T16:54:25.362Z,12.73
2022-11-14T16:58:03.685Z,14.87
2022-11-14T17:01:34.555Z,13.30
2022-11-14T17:11:34.829Z,13.83
2022-11-14T17:18:17.627Z,14.97
2022-11-14T17:36:40.676Z,15.93
2022-11-14T17:44:05.791Z,12.73
2022-11-14T17:47:37.571Z,13.90
2022-11-14T17:55:04.234Z,14.40
2022-11-14T18:01:43.695Z,16.37
2022-11-14T18:14:33.201Z,13.43
2022-11-14T18:25:35.285Z,12.83
2022-11-14T18:32:15.154Z,11.87
2022-11-14T18:39:07.758Z,14.50
2022-11-14T18:45:33.007Z,16.87
2022-11-14T18:52:37.981Z,14.33
2022-11-14T18:56:11.339Z,13.00
2022-11-14T19:02:34.654Z,13.87
2022-11-14T19:12:23.113Z,16.67
2022-11-14T19:16:00.340Z,11.60
2022-11-14T19:19:00.006Z,16.03
2022-11-14T19:22:38.808Z,14.77
2022-11-14T19:28:26.007Z,16.93
2022-11-14T19:35:37.474Z,31.43
2022-11-14T19:49:47.812Z,21.80
2022-11-14T20:06:25.859Z,32.10
2022-11-14T20:09:43.059Z,31.57
2022-11-14T20:23:24.146Z,19.57
2022-11-14T20:30:05.042Z,14.87
2022-11-14T20:37:10.389Z,16.73
2022-11-14T20:50:56.888Z,23.10
2022-11-14T20:54:33.683Z,25.23
2022-11-14T21:21:53.485Z,18.07
2022-11-14T21:29:09.631Z,16.47
2022-11-14T21:33:19.305Z,15.17
2022-11-14T21:49:18.661Z,19.10
2022-11-14T22:08:39.920Z,15.60
2022-11-14T22:23:41.600Z,15.93
2022-11-14T22:31:00.753Z,12.40
2022-11-14T23:12:34.167Z,13.17
2022-11-14T23:20:25.157Z,12.63
